sensor_id;sensor_type;location;lat;lon;timestamp;pressure;altitude;pressure_sealevel;temperature;humidity
1736;BME280;865;53.672;10.250;2024-01-16T00:05:52;99740.56;;;-2.46;100.00
1736;BME280;865;53.672;10.250;2024-01-16T00:08:19;99738.16;;;-2.36;100.00
1736;BME280;865;53.672;10.250;2024-01-16T00:10:46;99746.66;;;-2.37;100.00
1736;BME280;865;53.672;10.250;2024-01-16T00:13:12;99755.19;;;-2.36;100.00
1736;BME280;865;53.672;10.250;2024-01-16T00:15:39;99758.47;;;-2.43;100.00
1736;BME280;865;53.672;10.250;2024-01-16T00:18:07;99751.53;;;-2.50;100.00
1736;BME280;865;53.672;10.250;2024-01-16T00:20:35;99760.09;;;-2.48;100.00
1736;BME280;865;53.672;10.250;2024-01-16T00:23:01;99760.88;;;-2.51;100.00
1736;BME280;865;53.672;10.250;2024-01-16T00:25:28;99755.88;;;-2.46;100.00
1736;BME280;865;53.672;10.250;2024-01-16T00:27:55;99762.78;;;-2.41;100.00
1736;BME280;865;53.672;10.250;2024-01-16T00:30:21;99760.28;;;-2.38;100.00
1736;BME280;865;53.672;10.250;2024-01-16T00:32:48;99759.31;;;-2.43;100.00
1736;BME280;865;53.672;10.250;2024-01-16T00:35:14;99769.59;;;-2.40;100.00
1736;BME280;865;53.672;10.250;2024-01-16T00:37:41;99769.53;;;-2.43;100.00
1736;BME280;865;53.672;10.250;2024-01-16T00:40:07;99775.56;;;-2.39;100.00
1736;BME280;865;53.672;10.250;2024-01-16T00:42:35;99775.59;;;-2.36;100.00
1736;BME280;865;53.672;10.250;2024-01-16T00:45:01;99785.50;;;-2.55;100.00
1736;BME280;865;53.672;10.250;2024-01-16T00:47:28;99788.16;;;-2.47;100.00
1736;BME280;865;53.672;10.250;2024-01-16T00:49:54;99792.75;;;-2.29;100.00
1736;BME280;865;53.672;10.250;2024-01-16T00:52:21;99796.94;;;-2.34;100.00
1736;BME280;865;53.672;10.250;2024-01-16T00:54:47;99799.28;;;-2.45;100.00
1736;BME280;865;53.672;10.250;2024-01-16T00:57:15;99807.00;;;-2.42;100.00
1736;BME280;865;53.672;10.250;2024-01-16T00:59:48;99808.50;;;-2.53;100.00
1736;BME280;865;53.672;10.250;2024-01-16T01:02:15;99807.00;;;-2.43;100.00
1736;BME280;865;53.672;10.250;2024-01-16T01:04:42;99807.97;;;-2.35;100.00
1736;BME280;865;53.672;10.250;2024-01-16T01:07:13;99814.06;;;-2.28;100.00
1736;BME280;865;53.672;10.250;2024-01-16T01:09:40;99820.78;;;-2.32;100.00
1736;BME280;865;53.672;10.250;2024-01-16T01:12:06;99816.34;;;-2.42;100.00
1736;BME280;865;53.672;10.250;2024-01-16T01:14:33;99827.31;;;-2.48;100.00
1736;BME280;865;53.672;10.250;2024-01-16T01:17:00;99837.63;;;-2.43;100.00
1736;BME280;865;53.672;10.250;2024-01-16T01:19:27;99839.44;;;-2.38;100.00
1736;BME280;865;53.672;10.250;2024-01-16T01:21:53;99841.94;;;-2.41;100.00
1736;BME280;865;53.672;10.250;2024-01-16T01:24:20;99835.88;;;-2.46;100.00
1736;BME280;865;53.672;10.250;2024-01-16T01:26:46;99839.19;;;-2.50;100.00
1736;BME280;865;53.672;10.250;2024-01-16T01:29:13;99843.88;;;-2.73;100.00
1736;BME280;865;53.672;10.250;2024-01-16T01:31:39;99833.91;;;-2.59;100.00
1736;BME280;865;53.672;10.250;2024-01-16T01:34:06;99836.28;;;-2.68;100.00
1736;BME280;865;53.672;10.250;2024-01-16T01:36:33;99843.94;;;-2.68;100.00
1736;BME280;865;53.672;10.250;2024-01-16T01:39:00;99849.13;;;-2.65;100.00
1736;BME280;865;53.672;10.250;2024-01-16T01:41:26;99859.94;;;-2.79;100.00
1736;BME280;865;53.672;10.250;2024-01-16T01:43:53;99856.66;;;-2.73;100.00
1736;BME280;865;53.672;10.250;2024-01-16T01:46:19;99857.78;;;-2.57;100.00
1736;BME280;865;53.672;10.250;2024-01-16T01:48:47;99863.63;;;-2.64;100.00
1736;BME280;865;53.672;10.250;2024-01-16T01:51:18;99862.84;;;-2.60;100.00
1736;BME280;865;53.672;10.250;2024-01-16T01:53:47;99858.75;;;-2.52;100.00
1736;BME280;865;53.672;10.250;2024-01-16T01:56:17;99859.59;;;-2.50;100.00
1736;BME280;865;53.672;10.250;2024-01-16T01:58:47;99853.75;;;-2.44;100.00
1736;BME280;865;53.672;10.250;2024-01-16T02:01:15;99846.97;;;-2.44;100.00
1736;BME280;865;53.672;10.250;2024-01-16T02:03:43;99858.00;;;-2.45;100.00
1736;BME280;865;53.672;10.250;2024-01-16T02:06:11;99863.81;;;-2.54;100.00
1736;BME280;865;53.672;10.250;2024-01-16T02:08:39;99864.66;;;-2.53;100.00
1736;BME280;865;53.672;10.250;2024-01-16T02:11:06;99862.84;;;-2.60;100.00
1736;BME280;865;53.672;10.250;2024-01-16T02:13:33;99873.44;;;-2.83;100.00
1736;BME280;865;53.672;10.250;2024-01-16T02:16:00;99869.06;;;-2.90;100.00
1736;BME280;865;53.672;10.250;2024-01-16T02:18:27;99877.56;;;-2.91;100.00
1736;BME280;865;53.672;10.250;2024-01-16T02:20:59;99886.41;;;-2.73;100.00
1736;BME280;865;53.672;10.250;2024-01-16T02:23:27;99877.91;;;-2.72;100.00
1736;BME280;865;53.672;10.250;2024-01-16T02:25:54;99873.84;;;-2.64;100.00
1736;BME280;865;53.672;10.250;2024-01-16T02:28:20;99868.84;;;-2.57;100.00
1736;BME280;865;53.672;10.250;2024-01-16T02:30:47;99871.41;;;-2.58;100.00
1736;BME280;865;53.672;10.250;2024-01-16T02:33:13;99875.75;;;-2.53;100.00
1736;BME280;865;53.672;10.250;2024-01-16T02:35:40;99888.53;;;-2.51;100.00
1736;BME280;865;53.672;10.250;2024-01-16T02:38:07;99886.03;;;-2.49;100.00
1736;BME280;865;53.672;10.250;2024-01-16T02:40:33;99883.34;;;-2.56;100.00
1736;BME280;865;53.672;10.250;2024-01-16T02:43:00;99875.72;;;-2.54;100.00
1736;BME280;865;53.672;10.250;2024-01-16T02:45:26;99871.50;;;-2.52;100.00
1736;BME280;865;53.672;10.250;2024-01-16T02:47:53;99870.59;;;-2.54;100.00
1736;BME280;865;53.672;10.250;2024-01-16T02:50:20;99872.31;;;-2.53;100.00
1736;BME280;865;53.672;10.250;2024-01-16T02:52:47;99871.56;;;-2.49;100.00
1736;BME280;865;53.672;10.250;2024-01-16T02:55:13;99870.81;;;-2.43;100.00
1736;BME280;865;53.672;10.250;2024-01-16T02:57:40;99879.34;;;-2.43;100.00
1736;BME280;865;53.672;10.250;2024-01-16T03:00:07;99875.06;;;-2.44;100.00
1736;BME280;865;53.672;10.250;2024-01-16T03:02:34;99875.09;;;-2.42;100.00
1736;BME280;865;53.672;10.250;2024-01-16T03:05:03;99883.75;;;-2.34;100.00
1736;BME280;865;53.672;10.250;2024-01-16T03:07:32;99888.72;;;-2.42;100.00
1736;BME280;865;53.672;10.250;2024-01-16T03:09:58;99903.84;;;-2.51;100.00
1736;BME280;865;53.672;10.250;2024-01-16T03:12:25;99905.44;;;-2.58;100.00
1736;BME280;865;53.672;10.250;2024-01-16T03:14:51;99894.50;;;-2.50;100.00
1736;BME280;865;53.672;10.250;2024-01-16T03:17:19;99889.44;;;-2.49;100.00
1736;BME280;865;53.672;10.250;2024-01-16T03:19:46;99882.84;;;-2.38;100.00
1736;BME280;865;53.672;10.250;2024-01-16T03:22:13;99894.94;;;-2.29;100.00
1736;BME280;865;53.672;10.250;2024-01-16T03:24:39;99897.50;;;-2.27;100.00
1736;BME280;865;53.672;10.250;2024-01-16T03:27:06;99897.22;;;-2.41;100.00
1736;BME280;865;53.672;10.250;2024-01-16T03:29:33;99903.16;;;-2.42;100.00
1736;BME280;865;53.672;10.250;2024-01-16T03:32:00;99898.00;;;-2.45;100.00
1736;BME280;865;53.672;10.250;2024-01-16T03:34:27;99898.91;;;-2.42;100.00
1736;BME280;865;53.672;10.250;2024-01-16T03:36:54;99896.41;;;-2.40;100.00
1736;BME280;865;53.672;10.250;2024-01-16T03:39:20;99891.31;;;-2.40;100.00
1736;BME280;865;53.672;10.250;2024-01-16T03:41:47;99893.94;;;-2.36;100.00
1736;BME280;865;53.672;10.250;2024-01-16T03:44:13;99889.44;;;-2.47;100.00
1736;BME280;865;53.672;10.250;2024-01-16T03:46:40;99890.50;;;-2.38;100.00
1736;BME280;865;53.672;10.250;2024-01-16T03:49:06;99891.31;;;-2.40;100.00
1736;BME280;865;53.672;10.250;2024-01-16T03:51:33;99903.22;;;-2.41;100.00
1736;BME280;865;53.672;10.250;2024-01-16T03:53:59;99892.91;;;-2.45;100.00
1736;BME280;865;53.672;10.250;2024-01-16T03:56:25;99900.59;;;-2.44;100.00
1736;BME280;865;53.672;10.250;2024-01-16T03:58:52;99893.81;;;-2.42;100.00
1736;BME280;865;53.672;10.250;2024-01-16T04:01:18;99902.50;;;-2.34;100.00
1736;BME280;865;53.672;10.250;2024-01-16T04:03:55;99902.53;;;-2.31;100.00
1736;BME280;865;53.672;10.250;2024-01-16T04:06:21;99901.63;;;-2.34;100.00
1736;BME280;865;53.672;10.250;2024-01-16T04:08:48;99901.63;;;-2.33;100.00
1736;BME280;865;53.672;10.250;2024-01-16T04:11:14;99896.63;;;-2.28;100.00
1736;BME280;865;53.672;10.250;2024-01-16T04:13:41;99900.03;;;-2.27;100.00
1736;BME280;865;53.672;10.250;2024-01-16T04:16:08;99889.09;;;-2.20;100.00
1736;BME280;865;53.672;10.250;2024-01-16T04:18:36;99898.44;;;-2.21;100.00
1736;BME280;865;53.672;10.250;2024-01-16T04:21:04;99887.47;;;-2.17;100.00
1736;BME280;865;53.672;10.250;2024-01-16T04:23:30;99889.28;;;-2.11;100.00
1736;BME280;865;53.672;10.250;2024-01-16T04:25:57;99887.47;;;-2.17;100.00
1736;BME280;865;53.672;10.250;2024-01-16T04:28:24;99886.59;;;-2.17;100.00
1736;BME280;865;53.672;10.250;2024-01-16T04:30:50;99896.81;;;-2.17;100.00
1736;BME280;865;53.672;10.250;2024-01-16T04:33:17;99898.56;;;-2.16;100.00
1736;BME280;865;53.672;10.250;2024-01-16T04:35:44;99903.56;;;-2.22;100.00
1736;BME280;865;53.672;10.250;2024-01-16T04:38:10;99904.28;;;-2.28;100.00
1736;BME280;865;53.672;10.250;2024-01-16T04:40:37;99903.38;;;-2.32;100.00
1736;BME280;865;53.672;10.250;2024-01-16T04:43:04;99903.34;;;-2.33;100.00
1736;BME280;865;53.672;10.250;2024-01-16T04:45:30;99905.25;;;-2.23;100.00
1736;BME280;865;53.672;10.250;2024-01-16T04:47:56;99901.97;;;-2.16;100.00
1736;BME280;865;53.672;10.250;2024-01-16T04:50:23;99905.38;;;-2.15;100.00
1736;BME280;865;53.672;10.250;2024-01-16T04:52:50;99897.75;;;-2.12;100.00
1736;BME280;865;53.672;10.250;2024-01-16T04:55:19;99891.84;;;-2.11;100.00
1736;BME280;865;53.672;10.250;2024-01-16T04:57:46;99893.53;;;-2.10;100.00
1736;BME280;865;53.672;10.250;2024-01-16T05:00:12;99888.41;;;-2.12;100.00
1736;BME280;865;53.672;10.250;2024-01-16T05:02:39;99895.16;;;-2.15;100.00
1736;BME280;865;53.672;10.250;2024-01-16T05:05:05;99892.75;;;-2.06;100.00
1736;BME280;865;53.672;10.250;2024-01-16T05:07:32;99892.69;;;-2.09;100.00
1736;BME280;865;53.672;10.250;2024-01-16T05:09:59;99899.31;;;-2.20;100.00
1736;BME280;865;53.672;10.250;2024-01-16T05:12:25;99889.19;;;-2.14;100.00
1736;BME280;865;53.672;10.250;2024-01-16T05:14:51;99887.66;;;-2.06;100.00
1736;BME280;865;53.672;10.250;2024-01-16T05:17:18;99890.19;;;-2.06;100.00
1736;BME280;865;53.672;10.250;2024-01-16T05:19:44;99880.66;;;-2.16;100.00
1736;BME280;865;53.672;10.250;2024-01-16T05:22:11;99869.88;;;-2.00;100.00
1736;BME280;865;53.672;10.250;2024-01-16T05:24:37;99858.72;;;-2.05;100.00
1736;BME280;865;53.672;10.250;2024-01-16T05:27:04;99869.66;;;-2.12;100.00
1736;BME280;865;53.672;10.250;2024-01-16T05:29:33;99864.50;;;-2.15;100.00
1736;BME280;865;53.672;10.250;2024-01-16T05:32:00;99884.22;;;-2.08;100.00
1736;BME280;865;53.672;10.250;2024-01-16T05:34:26;99885.94;;;-2.07;100.00
1736;BME280;865;53.672;10.250;2024-01-16T05:36:53;99885.19;;;-2.01;100.00
1736;BME280;865;53.672;10.250;2024-01-16T05:39:20;99886.13;;;-1.95;100.00
1736;BME280;865;53.672;10.250;2024-01-16T05:41:47;99882.75;;;-1.94;100.00
1736;BME280;865;53.672;10.250;2024-01-16T05:44:14;99881.81;;;-1.99;100.00
1736;BME280;865;53.672;10.250;2024-01-16T05:46:40;99886.19;;;-1.93;100.00
1736;BME280;865;53.672;10.250;2024-01-16T05:49:06;99885.28;;;-1.94;100.00
1736;BME280;865;53.672;10.250;2024-01-16T05:51:33;99880.28;;;-1.88;100.00
1736;BME280;865;53.672;10.250;2024-01-16T05:54:00;99884.59;;;-1.85;100.00
1736;BME280;865;53.672;10.250;2024-01-16T05:56:27;99891.25;;;-1.95;100.00
1736;BME280;865;53.672;10.250;2024-01-16T05:58:53;99893.06;;;-1.89;100.00
1736;BME280;865;53.672;10.250;2024-01-16T06:01:19;99891.44;;;-1.83;100.00
1736;BME280;865;53.672;10.250;2024-01-16T06:03:46;99880.41;;;-1.80;100.00
1736;BME280;865;53.672;10.250;2024-01-16T06:06:16;99877.16;;;-1.71;100.00
1736;BME280;865;53.672;10.250;2024-01-16T06:08:43;99884.13;;;-1.61;100.00
1736;BME280;865;53.672;10.250;2024-01-16T06:11:09;99887.47;;;-1.65;100.00
1736;BME280;865;53.672;10.250;2024-01-16T06:13:40;99871.38;;;-1.58;100.00
1736;BME280;865;53.672;10.250;2024-01-16T06:16:06;99876.53;;;-1.55;100.00
1736;BME280;865;53.672;10.250;2024-01-16T06:18:35;99874.88;;;-1.54;100.00
1736;BME280;865;53.672;10.250;2024-01-16T06:21:03;99873.22;;;-1.51;100.00
1736;BME280;865;53.672;10.250;2024-01-16T06:23:29;99869.66;;;-1.59;100.00
1736;BME280;865;53.672;10.250;2024-01-16T06:25:56;99876.53;;;-1.55;100.00
1736;BME280;865;53.672;10.250;2024-01-16T06:28:22;99875.78;;;-1.49;100.00
1736;BME280;865;53.672;10.250;2024-01-16T06:30:48;99870.75;;;-1.45;100.00
1736;BME280;865;53.672;10.250;2024-01-16T06:33:15;99867.25;;;-1.50;100.00
1736;BME280;865;53.672;10.250;2024-01-16T06:35:42;99867.28;;;-1.47;100.00
1736;BME280;865;53.672;10.250;2024-01-16T06:38:09;99863.03;;;-1.48;100.00
1736;BME280;865;53.672;10.250;2024-01-16T06:40:35;99868.09;;;-1.51;100.00
1736;BME280;865;53.672;10.250;2024-01-16T06:43:02;99868.94;;;-1.50;100.00
1736;BME280;865;53.672;10.250;2024-01-16T06:45:28;99874.19;;;-1.43;100.00
1736;BME280;865;53.672;10.250;2024-01-16T06:47:55;99873.31;;;-1.45;100.00
1736;BME280;865;53.672;10.250;2024-01-16T06:50:22;99872.44;;;-1.44;100.00
1736;BME280;865;53.672;10.250;2024-01-16T06:52:48;99875.91;;;-1.40;100.00
1736;BME280;865;53.672;10.250;2024-01-16T06:55:15;99876.03;;;-1.32;100.00
1736;BME280;865;53.672;10.250;2024-01-16T06:57:41;99879.41;;;-1.35;100.00
1736;BME280;865;53.672;10.250;2024-01-16T07:00:08;99877.69;;;-1.36;100.00
1736;BME280;865;53.672;10.250;2024-01-16T07:02:34;99878.59;;;-1.32;100.00
1736;BME280;865;53.672;10.250;2024-01-16T07:05:01;99876.03;;;-1.32;100.00
1736;BME280;865;53.672;10.250;2024-01-16T07:07:28;99871.94;;;-1.21;100.00
1736;BME280;865;53.672;10.250;2024-01-16T07:09:54;99865.88;;;-1.28;100.00
1736;BME280;865;53.672;10.250;2024-01-16T07:12:21;99867.66;;;-1.21;100.00
1736;BME280;865;53.672;10.250;2024-01-16T07:14:47;99861.69;;;-1.21;100.00
1736;BME280;865;53.672;10.250;2024-01-16T07:17:14;99861.63;;;-1.27;100.00
1736;BME280;865;53.672;10.250;2024-01-16T07:19:40;99846.97;;;-1.38;100.00
1736;BME280;865;53.672;10.250;2024-01-16T07:22:07;99853.81;;;-1.35;100.00
1736;BME280;865;53.672;10.250;2024-01-16T07:24:33;99851.38;;;-1.26;100.00
1736;BME280;865;53.672;10.250;2024-01-16T07:26:59;99849.72;;;-1.22;100.00
1736;BME280;865;53.672;10.250;2024-01-16T07:29:26;99851.50;;;-1.18;100.00
1736;BME280;865;53.672;10.250;2024-01-16T07:31:52;99850.59;;;-1.22;100.00
1736;BME280;865;53.672;10.250;2024-01-16T07:34:19;99854.78;;;-1.25;100.00
1736;BME280;865;53.672;10.250;2024-01-16T07:36:48;99862.53;;;-1.21;100.00
1736;BME280;865;53.672;10.250;2024-01-16T07:39:15;99857.47;;;-1.18;100.00
1736;BME280;865;53.672;10.250;2024-01-16T07:41:41;99862.59;;;-1.16;100.00
1736;BME280;865;53.672;10.250;2024-01-16T07:44:07;99865.22;;;-1.13;100.00
1736;BME280;865;53.672;10.250;2024-01-16T07:46:34;99863.53;;;-1.12;100.00
1736;BME280;865;53.672;10.250;2024-01-16T07:49:00;99863.59;;;-1.06;100.00
1736;BME280;865;53.672;10.250;2024-01-16T07:51:27;99867.13;;;-0.97;100.00
1736;BME280;865;53.672;10.250;2024-01-16T07:54:05;99867.97;;;-0.98;100.00
1736;BME280;865;53.672;10.250;2024-01-16T07:56:33;99863.66;;;-1.00;100.00
1736;BME280;865;53.672;10.250;2024-01-16T07:59:00;99871.34;;;-0.99;100.00
1736;BME280;865;53.672;10.250;2024-01-16T08:01:28;99872.25;;;-0.97;100.00
1736;BME280;865;53.672;10.250;2024-01-16T08:03:57;99864.44;;;-1.04;100.00
1736;BME280;865;53.672;10.250;2024-01-16T08:06:24;99871.19;;;-1.12;100.00
1736;BME280;865;53.672;10.250;2024-01-16T08:08:50;99874.66;;;-1.07;100.00
1736;BME280;865;53.672;10.250;2024-01-16T08:11:18;99868.75;;;-1.02;100.00
1736;BME280;865;53.672;10.250;2024-01-16T08:13:44;99877.38;;;-0.97;100.00
1736;BME280;865;53.672;10.250;2024-01-16T08:16:11;99878.19;;;-1.01;100.00
1736;BME280;865;53.672;10.250;2024-01-16T08:18:37;99884.06;;;-1.05;100.00
1736;BME280;865;53.672;10.250;2024-01-16T08:21:04;99878.94;;;-1.06;100.00
1736;BME280;865;53.672;10.250;2024-01-16T08:23:32;99882.41;;;-1.03;100.00
1736;BME280;865;53.672;10.250;2024-01-16T08:25:58;99882.41;;;-1.03;100.00
1736;BME280;865;53.672;10.250;2024-01-16T08:28:24;99888.41;;;-1.01;100.00
1736;BME280;865;53.672;10.250;2024-01-16T08:30:52;99879.88;;;-1.00;100.00
1736;BME280;865;53.672;10.250;2024-01-16T08:33:19;99869.69;;;-0.98;100.00
1736;BME280;865;53.672;10.250;2024-01-16T08:35:59;99876.56;;;-0.93;100.00
1736;BME280;865;53.672;10.250;2024-01-16T08:38:25;99884.09;;;-1.03;100.00
1736;BME280;865;53.672;10.250;2024-01-16T08:40:52;99878.28;;;-0.92;100.00
1736;BME280;865;53.672;10.250;2024-01-16T08:43:18;99879.16;;;-0.89;100.00
1736;BME280;865;53.672;10.250;2024-01-16T08:45:45;99881.72;;;-0.91;100.00
1736;BME280;865;53.672;10.250;2024-01-16T08:48:11;99881.66;;;-0.93;100.00
1736;BME280;865;53.672;10.250;2024-01-16T08:50:39;99870.69;;;-0.84;100.00
1736;BME280;865;53.672;10.250;2024-01-16T08:53:06;99878.44;;;-0.79;100.00
1736;BME280;865;53.672;10.250;2024-01-16T08:55:33;99884.41;;;-0.79;100.00
1736;BME280;865;53.672;10.250;2024-01-16T08:58:00;99886.09;;;-0.82;100.00
1736;BME280;865;53.672;10.250;2024-01-16T09:00:26;99883.56;;;-0.79;100.00
1736;BME280;865;53.672;10.250;2024-01-16T09:02:53;99895.50;;;-0.80;100.00
1736;BME280;865;53.672;10.250;2024-01-16T09:05:20;99906.59;;;-0.79;100.00
1736;BME280;865;53.672;10.250;2024-01-16T09:07:51;99903.28;;;-0.71;100.00
1736;BME280;865;53.672;10.250;2024-01-16T09:10:18;99908.38;;;-0.74;100.00
1736;BME280;865;53.672;10.250;2024-01-16T09:12:46;99909.28;;;-0.69;100.00
1736;BME280;865;53.672;10.250;2024-01-16T09:15:12;99914.34;;;-0.72;100.00
1736;BME280;865;53.672;10.250;2024-01-16T09:17:39;99913.63;;;-0.64;100.00
1736;BME280;865;53.672;10.250;2024-01-16T09:20:07;99912.78;;;-0.62;100.00
1736;BME280;865;53.672;10.250;2024-01-16T09:22:33;99911.00;;;-0.66;100.00
1736;BME280;865;53.672;10.250;2024-01-16T09:25:00;99911.97;;;-0.59;100.00
1736;BME280;865;53.672;10.250;2024-01-16T09:27:27;99917.91;;;-0.60;100.00
1736;BME280;865;53.672;10.250;2024-01-16T09:29:54;99918.03;;;-0.51;100.00
1736;BME280;865;53.672;10.250;2024-01-16T09:32:20;99912.00;;;-0.55;100.00
1736;BME280;865;53.672;10.250;2024-01-16T09:34:47;99915.38;;;-0.59;100.00
1736;BME280;865;53.672;10.250;2024-01-16T09:37:13;99914.41;;;-0.70;100.00
1736;BME280;865;53.672;10.250;2024-01-16T09:39:41;99922.88;;;-0.74;100.00
1736;BME280;865;53.672;10.250;2024-01-16T09:42:08;99924.63;;;-0.70;100.00
1736;BME280;865;53.672;10.250;2024-01-16T09:44:34;99920.56;;;-0.56;100.00
1736;BME280;865;53.672;10.250;2024-01-16T09:47:02;99918.97;;;-0.44;100.00
1736;BME280;865;53.672;10.250;2024-01-16T09:49:31;99915.53;;;-0.47;100.00
1736;BME280;865;53.672;10.250;2024-01-16T09:51:57;99917.16;;;-0.52;100.00
1736;BME280;865;53.672;10.250;2024-01-16T09:54:28;99918.81;;;-0.58;100.00
1736;BME280;865;53.672;10.250;2024-01-16T09:56:58;99918.03;;;-0.51;100.00
1736;BME280;865;53.672;10.250;2024-01-16T09:59:26;99920.59;;;-0.51;100.00
1736;BME280;865;53.672;10.250;2024-01-16T10:01:55;99923.16;;;-0.51;100.00
1736;BME280;865;53.672;10.250;2024-01-16T10:04:22;99918.09;;;-0.45;100.00
1736;BME280;865;53.672;10.250;2024-01-16T10:06:49;99929.22;;;-0.43;100.00
1736;BME280;865;53.672;10.250;2024-01-16T10:09:17;99927.59;;;-0.38;100.00
1736;BME280;865;53.672;10.250;2024-01-16T10:11:44;99922.34;;;-0.46;100.00
1736;BME280;865;53.672;10.250;2024-01-16T10:14:11;99925.84;;;-0.40;100.00
1736;BME280;865;53.672;10.250;2024-01-16T10:17:03;99932.59;;;-0.46;100.00
1736;BME280;865;53.672;10.250;2024-01-16T10:19:51;99926.72;;;-0.38;100.00
1736;BME280;865;53.672;10.250;2024-01-16T10:22:22;99936.22;;;-0.28;100.00
1736;BME280;865;53.672;10.250;2024-01-16T10:25:04;99941.25;;;-0.37;100.00
1736;BME280;865;53.672;10.250;2024-01-16T10:27:31;99943.00;;;-0.35;100.00
1736;BME280;865;53.672;10.250;2024-01-16T10:29:58;99944.59;;;-0.44;100.00
1736;BME280;865;53.672;10.250;2024-01-16T10:32:36;99946.38;;;-0.37;100.00
1736;BME280;865;53.672;10.250;2024-01-16T10:35:08;99941.31;;;-0.31;100.00
1736;BME280;865;53.672;10.250;2024-01-16T10:37:48;99952.38;;;-0.35;100.00
1736;BME280;865;53.672;10.250;2024-01-16T10:40:22;99961.00;;;-0.27;100.00
1736;BME280;865;53.672;10.250;2024-01-16T10:43:04;99949.06;;;-0.27;100.00
1736;BME280;865;53.672;10.250;2024-01-16T10:45:32;99955.91;;;-0.26;100.00
1736;BME280;865;53.672;10.250;2024-01-16T10:48:06;99957.63;;;-0.25;100.00
1736;BME280;865;53.672;10.250;2024-01-16T10:50:36;99965.19;;;-0.35;100.00
1736;BME280;865;53.672;10.250;2024-01-16T10:53:04;99959.16;;;-0.39;100.00
1736;BME280;865;53.672;10.250;2024-01-16T10:55:54;99958.25;;;-0.42;100.00
1736;BME280;865;53.672;10.250;2024-01-16T10:58:21;99959.06;;;-0.47;100.00
1736;BME280;865;53.672;10.250;2024-01-16T11:00:51;99957.47;;;-0.37;100.00
1736;BME280;865;53.672;10.250;2024-01-16T11:03:21;99960.03;;;-0.37;100.00
1736;BME280;865;53.672;10.250;2024-01-16T11:05:50;99960.09;;;-0.32;100.00
1736;BME280;865;53.672;10.250;2024-01-16T11:08:18;99961.88;;;-0.25;100.00
1736;BME280;865;53.672;10.250;2024-01-16T11:10:45;99959.28;;;-0.28;100.00
1736;BME280;865;53.672;10.250;2024-01-16T11:13:13;99963.50;;;-0.33;100.00
1736;BME280;865;53.672;10.250;2024-01-16T11:15:41;99956.69;;;-0.33;100.00
1736;BME280;865;53.672;10.250;2024-01-16T11:18:09;99962.69;;;-0.29;100.00
1736;BME280;865;53.672;10.250;2024-01-16T11:20:36;99964.47;;;-0.24;100.00
1736;BME280;865;53.672;10.250;2024-01-16T11:23:23;99958.53;;;-0.18;100.00
1736;BME280;865;53.672;10.250;2024-01-16T11:25:50;99959.44;;;-0.14;100.00
1736;BME280;865;53.672;10.250;2024-01-16T11:28:16;99957.72;;;-0.17;100.00
1736;BME280;865;53.672;10.250;2024-01-16T11:30:43;99952.69;;;-0.06;100.00
1736;BME280;865;53.672;10.250;2024-01-16T11:33:41;99958.75;;;0.02;100.00
1736;BME280;865;53.672;10.250;2024-01-16T11:39:23;99957.28;;;0.24;100.00
1736;BME280;865;53.672;10.250;2024-01-16T11:41:58;99958.03;;;0.17;100.00
1736;BME280;865;53.672;10.250;2024-01-16T11:44:45;99965.69;;;0.11;100.00
1736;BME280;865;53.672;10.250;2024-01-16T11:47:18;99958.91;;;0.16;100.00
1736;BME280;865;53.672;10.250;2024-01-16T11:49:47;99962.25;;;0.12;100.00
1736;BME280;865;53.672;10.250;2024-01-16T11:52:14;99963.19;;;0.17;100.00
1736;BME280;865;53.672;10.250;2024-01-16T11:54:41;99967.34;;;0.09;100.00
1736;BME280;865;53.672;10.250;2024-01-16T11:57:41;99963.19;;;0.15;100.00
1736;BME280;865;53.672;10.250;2024-01-16T12:00:19;99961.56;;;0.27;100.00
1736;BME280;865;53.672;10.250;2024-01-16T12:02:53;99969.13;;;0.13;100.00
1736;BME280;865;53.672;10.250;2024-01-16T12:05:20;99961.50;;;0.19;100.00
1736;BME280;865;53.672;10.250;2024-01-16T12:07:49;99967.50;;;0.21;100.00
1736;BME280;865;53.672;10.250;2024-01-16T12:10:17;99959.00;;;0.28;100.00
1736;BME280;865;53.672;10.250;2024-01-16T12:12:45;99965.88;;;0.32;100.00
1736;BME280;865;53.672;10.250;2024-01-16T12:15:19;99964.97;;;0.24;100.00
1736;BME280;865;53.672;10.250;2024-01-16T12:17:53;99954.78;;;0.33;100.00
1736;BME280;865;53.672;10.250;2024-01-16T12:20:21;99961.63;;;0.33;100.00
1736;BME280;865;53.672;10.250;2024-01-16T12:22:55;99963.25;;;0.25;100.00
1736;BME280;865;53.672;10.250;2024-01-16T12:25:23;99967.56;;;0.29;100.00
1736;BME280;865;53.672;10.250;2024-01-16T12:28:10;99966.75;;;0.33;100.00
1736;BME280;865;53.672;10.250;2024-01-16T12:30:37;99970.97;;;0.29;100.00
1736;BME280;865;53.672;10.250;2024-01-16T12:33:11;99965.03;;;0.32;100.00
1736;BME280;865;53.672;10.250;2024-01-16T12:35:41;99965.91;;;0.35;100.00
1736;BME280;865;53.672;10.250;2024-01-16T12:38:09;99959.88;;;0.29;100.00
1736;BME280;865;53.672;10.250;2024-01-16T12:40:37;99952.22;;;0.30;100.00
1736;BME280;865;53.672;10.250;2024-01-16T12:43:05;99955.66;;;0.38;100.00
1736;BME280;865;53.672;10.250;2024-01-16T12:45:33;99953.91;;;0.31;100.00
1736;BME280;865;53.672;10.250;2024-01-16T12:48:00;99961.56;;;0.27;100.00
1736;BME280;865;53.672;10.250;2024-01-16T12:50:28;99959.97;;;0.41;100.00
1736;BME280;865;53.672;10.250;2024-01-16T12:53:07;99961.69;;;0.40;100.00
1736;BME280;865;53.672;10.250;2024-01-16T12:55:36;99962.56;;;0.44;100.00
1736;BME280;865;53.672;10.250;2024-01-16T12:58:17;99968.50;;;0.37;100.00
1736;BME280;865;53.672;10.250;2024-01-16T13:00:48;99963.31;;;0.31;100.00
1736;BME280;865;53.672;10.250;2024-01-16T13:03:15;99964.19;;;0.34;100.00
1736;BME280;865;53.672;10.250;2024-01-16T13:05:44;99963.38;;;0.37;100.00
1736;BME280;865;53.672;10.250;2024-01-16T13:08:18;99970.25;;;0.41;100.00
1736;BME280;865;53.672;10.250;2024-01-16T13:11:02;99965.75;;;0.15;100.00
1736;BME280;865;53.672;10.250;2024-01-16T13:13:29;99957.22;;;0.18;100.00
1736;BME280;865;53.672;10.250;2024-01-16T13:15:57;99956.41;;;0.23;100.00
1736;BME280;865;53.672;10.250;2024-01-16T13:18:24;99952.22;;;0.30;100.00
1736;BME280;865;53.672;10.250;2024-01-16T13:20:53;99954.75;;;0.32;100.00
1736;BME280;865;53.672;10.250;2024-01-16T13:23:21;99949.63;;;0.32;100.00
1736;BME280;865;53.672;10.250;2024-01-16T13:25:49;99947.97;;;0.37;100.00